createdAt,value
2019-03-19T05:19:18.499Z,100.00
2019-03-19T05:21:46.803Z,100.00
2019-03-19T05:24:15.195Z,100.00
2019-03-19T05:26:43.512Z,100.00
2019-03-19T05:29:11.952Z,100.00
2019-03-19T05:31:40.281Z,100.00
2019-03-19T05:34:08.587Z,100.00
2019-03-19T05:36:36.888Z,100.00
2019-03-19T05:39:07.337Z,100.00
2019-03-19T05:41:36.105Z,100.00
2019-03-19T05:44:04.611Z,100.00
2019-03-19T05:46:32.959Z,100.00
2019-03-19T05:49:01.337Z,100.00
2019-03-19T05:51:29.672Z,100.00
2019-03-19T05:53:57.990Z,100.00
2019-03-19T05:56:26.305Z,100.00
2019-03-19T05:58:54.608Z,100.00
2019-03-19T06:01:23.086Z,100.00
2019-03-19T06:03:51.389Z,100.00
2019-03-19T06:06:19.726Z,100.00
2019-03-19T06:08:48.034Z,100.00
2019-03-19T06:11:16.329Z,100.00
2019-03-19T06:13:44.648Z,100.00
2019-03-19T06:16:12.955Z,100.00
2019-03-19T06:18:41.619Z,100.00
2019-03-19T06:21:09.924Z,100.00
2019-03-19T06:23:38.246Z,100.00
2019-03-19T06:26:06.799Z,100.00
2019-03-19T06:28:35.728Z,100.00
2019-03-19T06:31:04.410Z,100.00
2019-03-19T06:33:32.716Z,100.00
2019-03-19T06:36:01.209Z,100.00
2019-03-19T06:38:29.510Z,100.00
2019-03-19T06:40:57.855Z,100.00
2019-03-19T06:43:26.156Z,100.00
2019-03-19T06:45:54.465Z,100.00
2019-03-19T06:48:22.794Z,45.45
2019-03-19T06:50:51.404Z,100.00
2019-03-19T06:53:19.748Z,100.00
2019-03-19T06:55:48.061Z,100.00
2019-03-19T06:58:16.393Z,100.00
2019-03-19T07:00:44.692Z,100.00
2019-03-19T07:03:13.000Z,100.00
2019-03-19T07:05:41.333Z,100.00
2019-03-19T07:08:10.175Z,100.00
2019-03-19T07:10:38.503Z,100.00
2019-03-19T07:13:06.931Z,100.00
2019-03-19T07:15:35.236Z,100.00
2019-03-19T07:18:03.627Z,100.00
2019-03-19T07:20:32.014Z,100.00
2019-03-19T07:23:00.314Z,100.00
2019-03-19T07:25:28.621Z,100.00
2019-03-19T07:27:57.016Z,100.00
2019-03-19T07:30:26.671Z,100.00
2019-03-19T07:32:55.007Z,100.00
2019-03-19T07:35:23.384Z,100.00
2019-03-19T07:37:51.733Z,100.00
2019-03-19T07:40:20.038Z,100.00
2019-03-19T07:42:48.344Z,100.00
2019-03-19T07:45:21.046Z,100.00
2019-03-19T07:47:49.322Z,100.00
2019-03-19T07:50:19.854Z,100.00
2019-03-19T07:52:48.228Z,100.00
2019-03-19T07:55:16.792Z,100.00
2019-03-19T07:57:45.093Z,100.00
2019-03-19T08:00:16.308Z,100.00
2019-03-19T08:02:45.181Z,100.00
2019-03-19T08:05:13.563Z,100.00
2019-03-19T08:07:42.398Z,100.00
2019-03-19T08:10:15.822Z,100.00
2019-03-19T08:12:44.387Z,100.00
2019-03-19T08:15:20.279Z,100.00
2019-03-19T08:17:48.693Z,100.00
2019-03-19T08:20:18.612Z,100.00
2019-03-19T08:22:47.384Z,100.00
2019-03-19T08:25:18.660Z,100.00
2019-03-19T08:27:47.046Z,100.00
2019-03-19T08:30:20.084Z,100.00
2019-03-19T08:32:48.561Z,100.00
2019-03-19T08:35:16.878Z,100.00
2019-03-19T08:37:45.264Z,100.00
2019-03-19T08:40:16.028Z,100.00
2019-03-19T08:42:44.722Z,100.00
2019-03-19T08:45:19.072Z,100.00
2019-03-19T08:47:47.539Z,100.00
2019-03-19T08:50:21.049Z,100.00
2019-03-19T08:52:49.398Z,100.00
2019-03-19T08:55:17.844Z,100.00
2019-03-19T08:57:46.217Z,100.00
2019-03-19T09:00:17.872Z,100.00
2019-03-19T09:02:46.243Z,100.00
2019-03-19T09:05:14.937Z,100.00
2019-03-19T09:07:43.257Z,100.00
2019-03-19T09:10:16.361Z,100.00
2019-03-19T09:12:44.859Z,100.00
2019-03-19T09:15:17.692Z,100.00
2019-03-19T09:17:46.059Z,100.00
2019-03-19T09:20:15.910Z,100.00
2019-03-19T09:22:44.300Z,100.00
2019-03-19T09:25:12.872Z,100.00
2019-03-19T09:27:41.270Z,100.00
2019-03-19T09:30:18.738Z,100.00
2019-03-19T09:32:47.380Z,100.00
2019-03-19T09:35:15.754Z,100.00
2019-03-19T09:37:53.629Z,100.00
2019-03-19T09:40:19.847Z,100.00
2019-03-19T09:42:48.808Z,100.00
2019-03-19T09:45:18.187Z,100.00
2019-03-19T09:47:47.233Z,100.00
2019-03-19T09:50:20.528Z,100.00
2019-03-19T09:52:49.082Z,100.00
2019-03-19T09:55:17.768Z,100.00
2019-03-19T09:57:46.177Z,100.00
2019-03-19T10:00:22.945Z,100.00
2019-03-19T10:02:51.277Z,100.00
2019-03-19T10:05:19.879Z,100.00
2019-03-19T10:07:48.586Z,100.00
2019-03-19T10:10:23.873Z,100.00
2019-03-19T10:12:52.149Z,100.00
2019-03-19T10:15:20.523Z,100.00
2019-03-19T10:17:48.850Z,100.00
2019-03-19T10:20:18.893Z,100.00
2019-03-19T10:22:47.999Z,100.00
2019-03-19T10:25:16.987Z,100.00
2019-03-19T10:27:45.373Z,100.00
2019-03-19T10:30:21.948Z,100.00
2019-03-19T10:32:50.322Z,100.00
2019-03-19T10:35:19.561Z,100.00
2019-03-19T10:37:47.949Z,100.00
2019-03-19T10:40:22.693Z,96.89
2019-03-19T10:42:51.037Z,100.00
2019-03-19T10:45:23.278Z,100.00
2019-03-19T10:47:51.576Z,98.42
2019-03-19T10:50:26.778Z,97.20
2019-03-19T10:52:55.138Z,88.71
2019-03-19T10:55:23.571Z,92.43
2019-03-19T10:57:51.912Z,93.19
2019-03-19T11:00:27.119Z,90.36
2019-03-19T11:02:55.515Z,93.01
2019-03-19T11:05:24.749Z,100.00
2019-03-19T11:07:53.468Z,89.99
2019-03-19T11:10:22.257Z,81.55
2019-03-19T11:12:50.716Z,79.17
2019-03-19T11:15:21.040Z,81.50
2019-03-19T11:17:49.431Z,85.96
2019-03-19T11:20:18.877Z,77.80
2019-03-19T11:22:47.538Z,67.14
2019-03-19T11:25:21.113Z,73.10
2019-03-19T11:27:49.482Z,73.37
2019-03-19T11:30:29.163Z,73.64
2019-03-19T11:32:57.549Z,73.19
2019-03-19T11:35:26.438Z,80.30
2019-03-19T11:37:54.887Z,79.47
2019-03-19T11:40:25.553Z,83.13
2019-03-19T11:42:53.576Z,83.06
2019-03-19T11:45:23.158Z,88.44
2019-03-19T11:47:52.156Z,96.40
2019-03-19T11:50:26.164Z,93.58
2019-03-19T11:52:54.899Z,95.60
2019-03-19T11:55:23.580Z,93.16
2019-03-19T11:57:52.427Z,90.42
2019-03-19T12:00:30.150Z,91.98
2019-03-19T12:02:58.818Z,92.02
2019-03-19T12:05:27.210Z,89.98
2019-03-19T12:07:55.507Z,90.79
2019-03-19T12:10:23.798Z,90.85
2019-03-19T12:12:52.115Z,85.46
2019-03-19T12:15:20.491Z,85.95
2019-03-19T12:17:48.991Z,84.45
2019-03-19T12:20:17.368Z,100.00
2019-03-19T12:22:45.706Z,100.00
2019-03-19T12:25:14.569Z,98.28
2019-03-19T12:27:42.870Z,98.65
2019-03-19T12:30:22.359Z,96.24
2019-03-19T12:32:46.546Z,83.02
2019-03-19T12:35:16.582Z,82.75
2019-03-19T12:37:45.014Z,78.95
2019-03-19T12:40:19.194Z,62.30
2019-03-19T12:42:47.568Z,63.14
2019-03-19T12:45:20.270Z,61.33
2019-03-19T12:47:48.628Z,60.40
2019-03-19T12:50:22.831Z,63.46
2019-03-19T12:52:51.952Z,67.33
2019-03-19T12:55:20.352Z,69.85
2019-03-19T12:57:48.746Z,76.65
2019-03-19T13:00:34.216Z,76.61
2019-03-19T13:02:57.941Z,77.87
2019-03-19T13:05:26.356Z,78.41
2019-03-19T13:07:54.706Z,78.08
2019-03-19T13:10:24.054Z,75.71
2019-03-19T13:12:52.371Z,72.77
2019-03-19T13:15:21.408Z,70.29
2019-03-19T13:17:49.795Z,69.82
2019-03-19T13:20:19.112Z,69.61
2019-03-19T13:22:47.433Z,57.23
2019-03-19T13:25:18.025Z,56.22
2019-03-19T13:27:46.699Z,52.62
2019-03-19T13:30:29.191Z,50.08
2019-03-19T13:32:57.605Z,47.59
2019-03-19T13:35:25.905Z,44.25
2019-03-19T13:37:54.273Z,48.57
2019-03-19T13:40:22.657Z,49.48
2019-03-19T13:42:50.961Z,51.57
2019-03-19T13:45:24.159Z,53.43
2019-03-19T13:47:52.599Z,55.87
2019-03-19T13:50:22.177Z,61.11
2019-03-19T13:52:50.711Z,62.93
2019-03-19T13:55:20.360Z,59.89
2019-03-19T13:57:48.744Z,64.92
2019-03-19T14:00:18.091Z,65.80
2019-03-19T14:02:46.500Z,66.60
2019-03-19T14:05:15.788Z,69.50
2019-03-19T14:07:44.507Z,64.03
2019-03-19T14:10:15.143Z,59.76
2019-03-19T14:12:43.541Z,50.26
2019-03-19T14:15:20.886Z,49.80
2019-03-19T14:17:49.281Z,50.50
2019-03-19T14:20:17.966Z,48.88
2019-03-19T14:22:46.649Z,50.75
2019-03-19T14:25:16.411Z,49.55
2019-03-19T14:27:44.702Z,49.93
2019-03-19T14:30:20.205Z,51.72
2019-03-19T14:32:48.502Z,51.76
2019-03-19T14:35:16.795Z,52.34
2019-03-19T14:37:45.345Z,48.29
2019-03-19T14:40:22.814Z,48.16
2019-03-19T14:42:51.636Z,46.26
2019-03-19T14:45:19.929Z,50.05
2019-03-19T14:47:48.355Z,50.13
2019-03-19T14:50:18.862Z,50.74
2019-03-19T14:52:47.904Z,52.62
2019-03-19T14:55:16.291Z,52.19
2019-03-19T14:57:44.664Z,52.28
2019-03-19T15:00:23.211Z,52.14
2019-03-19T15:02:51.474Z,47.91
2019-03-19T15:05:20.149Z,47.28
2019-03-19T15:07:48.521Z,47.90
2019-03-19T15:10:21.939Z,49.62
2019-03-19T15:12:50.736Z,48.57
2019-03-19T15:15:20.564Z,50.09
2019-03-19T15:17:48.953Z,50.34
2019-03-19T15:20:26.181Z,50.34
2019-03-19T15:22:54.496Z,48.91
2019-03-19T15:25:22.862Z,49.53
2019-03-19T15:27:51.166Z,49.86
2019-03-19T15:30:21.093Z,49.94
2019-03-19T15:32:49.754Z,47.70
2019-03-19T15:35:18.052Z,47.23
2019-03-19T15:37:46.372Z,42.86
2019-03-19T15:40:21.039Z,40.43
2019-03-19T15:42:49.499Z,43.64
2019-03-19T15:45:23.583Z,43.80
2019-03-19T15:47:51.884Z,43.61
2019-03-19T15:50:20.215Z,45.21
2019-03-19T15:52:48.528Z,46.10
2019-03-19T15:55:17.182Z,47.02
2019-03-19T15:57:45.969Z,47.75
2019-03-19T16:00:19.357Z,48.51
2019-03-19T16:02:48.062Z,46.38
2019-03-19T16:05:16.622Z,44.75
2019-03-19T16:07:45.048Z,45.31
2019-03-19T16:10:17.558Z,43.77
2019-03-19T16:12:46.211Z,43.35
2019-03-19T16:15:18.245Z,44.85
2019-03-19T16:17:46.622Z,43.94
2019-03-19T16:20:16.703Z,42.52
2019-03-19T16:22:45.099Z,43.53
2019-03-19T16:25:14.141Z,43.81
2019-03-19T16:27:42.514Z,44.21
2019-03-19T16:30:21.011Z,43.70
2019-03-19T16:32:49.380Z,43.84
2019-03-19T16:35:17.759Z,45.01
2019-03-19T16:37:46.074Z,45.46
2019-03-19T16:40:21.411Z,45.44
2019-03-19T16:42:49.994Z,44.49
2019-03-19T16:45:19.011Z,46.75
2019-03-19T16:47:47.508Z,43.96
2019-03-19T16:50:17.445Z,44.10
2019-03-19T16:52:45.757Z,45.48
2019-03-19T16:55:18.584Z,45.04
2019-03-19T16:57:46.964Z,46.43
2019-03-19T17:00:20.213Z,47.18
2019-03-19T17:02:48.611Z,48.82
2019-03-19T17:05:18.375Z,49.37
2019-03-19T17:07:46.801Z,49.85
2019-03-19T17:10:23.895Z,50.34
2019-03-19T17:12:52.221Z,50.64
2019-03-19T17:15:20.587Z,51.50
2019-03-19T17:17:49.175Z,52.45
2019-03-19T17:20:18.926Z,52.68
2019-03-19T17:22:47.285Z,53.38
2019-03-19T17:25:20.869Z,54.35
2019-03-19T17:27:49.256Z,54.99
2019-03-19T17:30:20.095Z,55.33
2019-03-19T17:32:48.491Z,55.26
2019-03-19T17:35:16.865Z,54.25
2019-03-19T17:37:45.330Z,55.08
2019-03-19T17:40:16.287Z,55.67
2019-03-19T17:42:44.679Z,55.62
2019-03-19T17:45:14.410Z,56.62
2019-03-19T17:47:42.779Z,57.36
2019-03-19T17:50:23.438Z,56.89
2019-03-19T17:52:53.274Z,58.60
2019-03-19T17:55:22.043Z,59.77
2019-03-19T17:57:50.433Z,62.19
2019-03-19T18:00:24.714Z,62.08
2019-03-19T18:02:53.013Z,59.04
2019-03-19T18:05:21.428Z,63.32
2019-03-19T18:07:50.104Z,64.61
2019-03-19T18:10:18.558Z,65.31
2019-03-19T18:12:46.887Z,64.48
2019-03-19T18:15:19.255Z,64.32
2019-03-19T18:17:47.648Z,64.17
2019-03-19T18:20:16.898Z,66.52
2019-03-19T18:22:45.318Z,72.74
2019-03-19T18:25:15.810Z,69.71
2019-03-19T18:27:44.262Z,71.66
2019-03-19T18:30:18.028Z,73.65
2019-03-19T18:32:46.434Z,74.20
2019-03-19T18:35:14.881Z,75.73
2019-03-19T18:37:45.555Z,76.45
2019-03-19T18:40:15.985Z,77.96
2019-03-19T18:42:44.386Z,80.36
2019-03-19T18:45:15.411Z,80.98
2019-03-19T18:47:43.710Z,82.21
2019-03-19T18:50:17.747Z,83.90
2019-03-19T18:52:47.731Z,85.08
2019-03-19T18:55:16.092Z,86.47
2019-03-19T18:57:44.408Z,87.80
2019-03-19T19:00:17.759Z,90.97
2019-03-19T19:02:50.242Z,94.50
2019-03-19T19:05:25.504Z,96.03
2019-03-19T19:07:53.901Z,97.10
2019-03-19T19:10:22.542Z,98.38
2019-03-19T19:12:50.930Z,96.20
2019-03-19T19:15:23.412Z,93.54
2019-03-19T19:17:51.801Z,93.54
2019-03-19T19:20:20.888Z,93.43
2019-03-19T19:22:49.359Z,93.46
2019-03-19T19:25:24.916Z,95.72
2019-03-19T19:27:53.231Z,96.72
2019-03-19T19:30:31.855Z,95.26
2019-03-19T19:33:02.528Z,92.29
2019-03-19T19:35:30.267Z,89.57
2019-03-19T19:37:58.593Z,89.09
2019-03-19T19:40:26.959Z,89.37
2019-03-19T19:42:55.260Z,88.57
2019-03-19T19:45:23.692Z,89.18
2019-03-19T19:47:52.345Z,88.45
2019-03-19T19:50:21.598Z,87.76
2019-03-19T19:52:50.209Z,85.01
2019-03-19T19:55:18.522Z,89.42
2019-03-19T19:57:47.209Z,89.42
2019-03-19T20:00:19.806Z,90.89
2019-03-19T20:02:48.205Z,92.13
2019-03-19T20:05:16.585Z,92.89
2019-03-19T20:07:45.016Z,94.83
2019-03-19T20:10:18.240Z,94.38
2019-03-19T20:12:46.602Z,99.71
2019-03-19T20:15:15.279Z,99.85
2019-03-19T20:17:43.757Z,100.00
2019-03-19T20:20:14.503Z,97.88
2019-03-19T20:22:44.808Z,97.20
2019-03-19T20:25:13.919Z,94.08
2019-03-19T20:27:42.307Z,91.96
2019-03-19T20:30:16.523Z,93.74
2019-03-19T20:32:45.003Z,97.88
2019-03-19T20:35:13.432Z,93.73
2019-03-19T20:37:42.086Z,92.75
2019-03-19T20:40:12.897Z,92.98
2019-03-19T20:42:41.315Z,99.74
2019-03-19T20:45:12.643Z,97.49
2019-03-19T20:47:41.036Z,100.00
2019-03-19T20:50:15.449Z,100.00
2019-03-19T20:52:43.835Z,100.00
2019-03-19T20:55:12.764Z,99.37
2019-03-19T20:57:41.222Z,100.00
2019-03-19T21:00:19.230Z,99.82
2019-03-19T21:02:48.387Z,97.25
2019-03-19T21:05:16.696Z,100.00
2019-03-19T21:07:45.505Z,100.00
2019-03-19T21:10:24.230Z,99.52
2019-03-19T21:12:52.902Z,100.00
2019-03-19T21:15:23.438Z,100.00
2019-03-19T21:17:51.828Z,100.00
2019-03-19T21:20:20.302Z,100.00
2019-03-19T21:22:48.778Z,100.00
2019-03-19T21:25:17.514Z,100.00
2019-03-19T21:27:45.889Z,100.00
2019-03-19T21:30:17.118Z,100.00
2019-03-19T21:32:46.128Z,100.00
2019-03-19T21:35:14.507Z,100.00
2019-03-19T21:37:42.892Z,100.00
2019-03-19T21:40:15.675Z,100.00
2019-03-19T21:42:44.050Z,100.00
2019-03-19T21:45:20.961Z,100.00
2019-03-19T21:47:49.331Z,100.00
2019-03-19T21:50:20.064Z,100.00
2019-03-19T21:52:48.431Z,100.00
2019-03-19T21:55:16.805Z,100.00
2019-03-19T21:57:45.486Z,100.00
2019-03-19T22:00:27.032Z,100.00
2019-03-19T22:02:55.599Z,100.00
2019-03-19T22:05:24.359Z,100.00
2019-03-19T22:07:52.693Z,100.00
2019-03-19T22:10:22.238Z,100.00
2019-03-19T22:12:50.792Z,100.00
2019-03-19T22:15:26.707Z,100.00
2019-03-19T22:17:55.088Z,100.00
2019-03-19T22:20:23.874Z,100.00
2019-03-19T22:22:52.567Z,100.00
2019-03-19T22:25:20.878Z,100.00
2019-03-19T22:27:49.251Z,100.00
2019-03-19T22:30:19.772Z,100.00
2019-03-19T22:32:48.439Z,100.00
2019-03-19T22:35:16.824Z,100.00
2019-03-19T22:37:45.920Z,100.00
2019-03-19T22:40:20.295Z,100.00
2019-03-19T22:42:48.609Z,100.00
2019-03-19T22:45:20.286Z,100.00
2019-03-19T22:47:48.774Z,100.00
2019-03-19T22:50:18.124Z,100.00
2019-03-19T22:52:46.997Z,100.00
2019-03-19T22:55:16.263Z,100.00
2019-03-19T22:57:44.807Z,100.00
2019-03-19T23:00:40.032Z,100.00
2019-03-19T23:03:08.782Z,100.00
2019-03-19T23:05:37.158Z,100.00
2019-03-19T23:08:06.302Z,100.00
2019-03-19T23:10:35.427Z,100.00
2019-03-19T23:13:04.361Z,100.00
2019-03-19T23:15:32.660Z,100.00
2019-03-19T23:18:01.395Z,100.00
2019-03-19T23:20:29.763Z,100.00
2019-03-19T23:22:58.319Z,100.00
2019-03-19T23:25:26.731Z,100.00
2019-03-19T23:27:55.238Z,100.00
2019-03-19T23:30:24.888Z,100.00
2019-03-19T23:32:53.823Z,100.00
2019-03-19T23:35:22.392Z,100.00
2019-03-19T23:37:50.809Z,100.00
2019-03-19T23:40:21.120Z,100.00
2019-03-19T23:42:49.502Z,100.00
2019-03-19T23:45:17.883Z,100.00
2019-03-19T23:47:46.312Z,100.00
2019-03-19T23:50:19.054Z,100.00
2019-03-19T23:52:47.848Z,100.00
2019-03-19T23:55:16.230Z,100.00
2019-03-19T23:57:44.605Z,100.00
